EGGP

Liverpool John Lennon Airport

Liverpool, United Kingdom
TAF AMD EGGP 191312Z 1913/2012 14008KT 9999 BKN010 TEMPO 1913/2012 6000 -RADZ BKN008 PROB30 TEMPO 1913/1924 3000 RADZ BR BKN004 BECMG 2009/2012 32010KT FEW010 SCT030
Issued Valid From Valid To
Jan-19 @ 13:12 UTC
(4 hours ago)
Jan-19 @ 13:00 UTC
(4 hours ago)
Jan-20 @ 12:00 UTC
(in 19 hours)
Jan-19 @ 13:00 to Jan-20 @ 09:00
TAF AMD EGGP 191312Z 1913/2012 14008KT 9999 BKN010
Wind Visibility Clouds
140° at 8 knots 10,000+ meters
  • Broken at 1,000' AGL
Temporary  (Probability 30%) Jan-19 @ 13:00 to Jan-20 @ 00:00
PROB30 TEMPO 1913/1924 3000 RADZ BR BKN004
Visibility Clouds Conditions
2,993 meters
  • Broken at 400' AGL
  • Rain
  • Drizzle
  • Mist
Temporary Jan-19 @ 13:00 to Jan-20 @ 12:00
TEMPO 1913/2012 6000 -RADZ BKN008
Visibility Clouds Conditions
6,003 meters
  • Broken at 800' AGL
  • Light Rain
  • Light Drizzle
Becoming Jan-20 @ 09:00 to Jan-20 @ 12:00
BECMG 2009/2012 32010KT FEW010 SCT030
Wind Visibility Clouds
320° at 10 knots 10,000+ meters
  • Few at 1,000' AGL
  • Scattered at 3,000' AGL
TAF AMD EGGP 191312Z 1913/2012 14008KT 9999 BKN010 TEMPO 1913/2012 6000 -RADZ BKN008 PROB30 TEMPO 1913/1924 3000 RADZ BR BKN004 BECMG 2009/2012 32010KT FEW010 SCT030
Issued Jan-19 @ 13:12 UTC
(4 hours ago)
Valid From Jan-19 @ 13:00 UTC
(4 hours ago)
Valid To Jan-20 @ 12:00 UTC
(in 19 hours)
Jan-19 @ 13:00 - Jan-20 @ 09:00
Wind Visibility
140° at 8 knots 10,000+ meters
Clouds
  • Broken at 1,000' AGL
Probability 30% Temporary Jan-19 @ 13:00 - Jan-20 @ 00:00
Clouds
  • Broken at 400' AGL
Conditions
  • Rain
  • Drizzle
  • Mist
Temporary Jan-19 @ 13:00 - Jan-20 @ 12:00
Clouds
  • Broken at 800' AGL
Conditions
  • Light Rain
  • Light Drizzle
Becoming Jan-20 @ 09:00 - Jan-20 @ 12:00
Wind Visibility
320° at 10 knots 10,000+ meters
Clouds
  • Few at 1,000' AGL
  • Scattered at 3,000' AGL